createdAt,value
2018-05-03T00:03:43.729Z,17.4
2018-05-03T00:08:43.766Z,17.4
2018-05-03T00:13:43.698Z,17.1
2018-05-03T00:18:43.549Z,17
2018-05-03T00:23:44.299Z,16.8
2018-05-03T00:28:44.024Z,16.6
2018-05-03T00:33:56.961Z,16.6
2018-05-03T00:38:56.870Z,16.6
2018-05-03T00:43:56.799Z,16.5
2018-05-03T00:48:56.834Z,16.6
2018-05-03T00:53:56.864Z,16.4
2018-05-03T00:58:56.683Z,16.5
2018-05-03T01:03:56.697Z,16.5
2018-05-03T01:08:56.853Z,16.6
2018-05-03T01:13:56.908Z,16.5
2018-05-03T01:18:56.836Z,16.5
2018-05-03T01:23:56.819Z,16.5
2018-05-03T01:28:56.897Z,16.4
2018-05-03T01:33:57.498Z,16.3
2018-05-03T01:39:00.435Z,16.2
2018-05-03T01:44:09.787Z,16.2
2018-05-03T01:49:09.636Z,16.2
2018-05-03T01:54:09.677Z,16.2
2018-05-03T01:59:09.711Z,16.2
2018-05-03T02:04:09.631Z,16.2
2018-05-03T02:09:09.682Z,16.1
2018-05-03T02:14:09.498Z,16
2018-05-03T02:19:09.969Z,16.1
2018-05-03T02:24:09.875Z,16
2018-05-03T02:29:22.689Z,16
2018-05-03T02:34:22.639Z,16
2018-05-03T02:39:22.568Z,15.9
2018-05-03T02:44:22.608Z,15.7
2018-05-03T02:49:22.536Z,15.8
2018-05-03T02:54:22.426Z,15.7
2018-05-03T02:59:22.604Z,15.5
2018-05-03T03:04:23.064Z,15.6
2018-05-03T03:09:22.980Z,15.6
2018-05-03T03:14:35.606Z,15.4
2018-05-03T03:19:35.542Z,15.5
2018-05-03T03:24:35.466Z,15.4
2018-05-03T03:29:35.519Z,15.2
2018-05-03T03:34:35.323Z,15.2
2018-05-03T03:39:35.451Z,15.2
2018-05-03T03:44:35.513Z,15.1
2018-05-03T03:49:35.694Z,15
2018-05-03T03:54:35.416Z,14.9
2018-05-03T03:59:47.995Z,15
2018-05-03T04:04:47.729Z,14.9
2018-05-03T04:09:47.869Z,14.9
2018-05-03T04:14:47.897Z,14.7
2018-05-03T04:19:47.898Z,14.8
2018-05-03T04:24:47.982Z,14.8
2018-05-03T04:29:47.698Z,14.5
2018-05-03T04:34:49.102Z,14.5
2018-05-03T04:39:48.997Z,14.8
2018-05-03T04:45:01.761Z,14.7
2018-05-03T04:50:01.673Z,14.9
2018-05-03T04:55:01.707Z,15
2018-05-03T05:00:01.617Z,15.5
2018-05-03T05:05:01.664Z,15.4
2018-05-03T05:10:01.490Z,15.2
2018-05-03T05:15:01.494Z,15.5
2018-05-03T05:20:06.110Z,16
2018-05-03T05:25:05.956Z,16.3
2018-05-03T05:30:20.652Z,16.5
2018-05-03T05:35:20.597Z,16.8
2018-05-03T05:40:20.528Z,17
2018-05-03T05:45:20.366Z,16.7
2018-05-03T05:50:20.599Z,17
2018-05-03T05:55:20.393Z,17.1
2018-05-03T06:00:21.541Z,16.8
2018-05-03T06:05:20.598Z,17.1
2018-05-03T06:10:20.587Z,17.4
2018-05-03T06:15:20.775Z,17.4
2018-05-03T06:20:20.691Z,17.7
2018-05-03T06:25:20.586Z,17.8
2018-05-03T06:30:21.718Z,18
2018-05-03T06:35:21.637Z,18.2
2018-05-03T06:40:34.364Z,18.5
2018-05-03T06:45:34.286Z,18.9
2018-05-03T06:50:34.205Z,18.9
2018-05-03T06:55:34.245Z,18.8
2018-05-03T07:00:34.291Z,19.2
2018-05-03T07:05:34.215Z,19.7
2018-05-03T07:10:34.095Z,20
2018-05-03T07:15:37.621Z,20.1
2018-05-03T07:20:37.532Z,19.7
2018-05-03T07:25:48.052Z,20
2018-05-03T07:30:47.901Z,19.6
2018-05-03T07:35:47.888Z,19.7
2018-05-03T07:40:48.025Z,20
2018-05-03T07:45:47.776Z,20.1
2018-05-03T07:50:47.799Z,20.6
2018-05-03T07:55:47.906Z,20.9
2018-05-03T08:00:47.903Z,21.3
2018-05-03T08:05:47.929Z,20.5
2018-05-03T08:10:48.119Z,21.1
2018-05-03T08:15:47.993Z,21.1
2018-05-03T08:20:48.120Z,21.2
2018-05-03T08:25:50.038Z,21.6
2018-05-03T08:30:49.955Z,21.2
2018-05-03T08:36:02.594Z,21.6
2018-05-03T08:41:02.322Z,21.1
2018-05-03T08:46:02.550Z,21.7
2018-05-03T08:51:02.476Z,21.7
2018-05-03T08:56:02.336Z,22.6
2018-05-03T09:01:02.342Z,22.6
2018-05-03T09:06:02.356Z,22.8
2018-05-03T09:11:03.097Z,22.6
2018-05-03T09:16:02.762Z,23.1
2018-05-03T09:21:15.351Z,23.3
2018-05-03T09:26:15.201Z,23
2018-05-03T09:31:15.237Z,23.1
2018-05-03T09:36:15.277Z,23.2
2018-05-03T09:41:15.102Z,23.2
2018-05-03T09:46:15.352Z,22.8
2018-05-03T09:51:15.346Z,22.8
2018-05-03T09:56:15.514Z,23.7
2018-05-03T10:01:15.556Z,23.8
2018-05-03T10:06:15.477Z,23.7
2018-05-03T10:11:15.354Z,24.2
2018-05-03T10:16:15.465Z,23.3
2018-05-03T10:21:16.377Z,24.1
2018-05-03T10:26:16.234Z,24.3
2018-05-03T10:31:28.762Z,24.7
2018-05-03T10:36:28.489Z,24.2
2018-05-03T10:41:28.620Z,24.5
2018-05-03T10:46:28.652Z,24.5
2018-05-03T10:51:28.496Z,24.8
2018-05-03T10:56:28.522Z,25.1
2018-05-03T11:01:28.633Z,25.5
2018-05-03T11:06:29.640Z,25.2
2018-05-03T11:11:29.652Z,24.7
2018-05-03T11:16:41.863Z,24.6
2018-05-03T11:21:41.689Z,24.9
2018-05-03T11:26:41.722Z,24.7
2018-05-03T11:31:41.592Z,25.3
2018-05-03T11:36:41.815Z,25.8
2018-05-03T11:41:41.601Z,25.7
2018-05-03T11:46:41.613Z,25.6
2018-05-03T11:51:41.812Z,26
2018-05-03T11:56:41.725Z,26
2018-05-03T12:01:41.605Z,25.9
2018-05-03T12:06:41.608Z,25.7
2018-05-03T12:11:41.922Z,26
2018-05-03T12:16:42.024Z,25.4
2018-05-03T12:21:41.911Z,25.5
2018-05-03T12:26:54.646Z,25.5
2018-05-03T12:31:54.322Z,25
2018-05-03T12:36:54.532Z,25
2018-05-03T12:41:54.530Z,24.9
2018-05-03T12:46:54.564Z,25.4
2018-05-03T12:51:54.497Z,25.7
2018-05-03T12:56:54.385Z,25.6
2018-05-03T13:01:55.463Z,25.9
2018-05-03T13:06:55.311Z,25.3
2018-05-03T13:12:08.195Z,25.6
2018-05-03T13:17:07.989Z,25.6
2018-05-03T13:22:08.113Z,25.4
2018-05-03T13:27:08.036Z,25.9
2018-05-03T13:32:08.092Z,25.9
2018-05-03T13:37:07.920Z,25.5
2018-05-03T13:42:08.012Z,25.8
2018-05-03T13:47:08.098Z,25.2
2018-05-03T13:52:08.142Z,25.1
2018-05-03T13:57:08.037Z,25.4
2018-05-03T14:02:07.895Z,25.5
2018-05-03T14:07:08.141Z,25.6
2018-05-03T14:12:08.702Z,26
2018-05-03T14:17:08.580Z,26.2
2018-05-03T14:22:20.811Z,26.1
2018-05-03T14:27:20.752Z,26.3
2018-05-03T14:32:20.553Z,25.8
2018-05-03T14:37:20.711Z,26.4
2018-05-03T14:42:20.762Z,25.9
2018-05-03T14:47:23.716Z,25.5
2018-05-03T14:52:20.566Z,25.9
2018-05-03T14:57:20.551Z,25.9
2018-05-03T15:02:20.583Z,25.3
2018-05-03T15:07:20.564Z,25.2
2018-05-03T15:12:20.581Z,25.5
2018-05-03T15:17:20.777Z,25.3
2018-05-03T15:22:21.503Z,25.2
2018-05-03T15:27:21.233Z,25
2018-05-03T15:32:35.281Z,25.2
2018-05-03T15:37:35.002Z,24.8
2018-05-03T15:42:35.199Z,24.7
2018-05-03T15:47:35.145Z,24.3
2018-05-03T15:52:35.000Z,24.1
2018-05-03T15:57:35.034Z,23.5
2018-05-03T16:02:35.051Z,23.3
2018-05-03T16:07:36.831Z,22.8
2018-05-03T16:12:36.486Z,22.4
2018-05-03T16:17:51.837Z,22.5
2018-05-03T16:22:50.246Z,22.3
2018-05-03T16:27:50.236Z,21.9
2018-05-03T16:32:50.244Z,21.3
2018-05-03T16:37:50.246Z,21
2018-05-03T16:42:50.226Z,20.6
2018-05-03T16:47:50.249Z,20.2
2018-05-03T16:52:50.244Z,19.9
2018-05-03T16:57:50.244Z,19.9
2018-05-03T17:02:50.268Z,19.8
2018-05-03T17:07:50.268Z,19.7
2018-05-03T17:12:50.217Z,19.5
2018-05-03T17:17:53.955Z,19.6
2018-05-03T17:22:52.337Z,19.2
2018-05-03T17:28:06.156Z,19.2
2018-05-03T17:33:05.887Z,19.1
2018-05-03T17:38:05.901Z,19.1
2018-05-03T17:43:06.065Z,19.2
2018-05-03T17:48:05.943Z,19
2018-05-03T17:53:05.995Z,19
2018-05-03T17:58:05.915Z,18.6
2018-05-03T18:03:06.334Z,18.6
2018-05-03T18:08:05.974Z,18.2
2018-05-03T18:13:18.814Z,18.4
2018-05-03T18:18:18.545Z,18.2
2018-05-03T18:23:18.572Z,18.3
2018-05-03T18:28:18.700Z,18
2018-05-03T18:33:18.715Z,17.7
2018-05-03T18:38:19.471Z,17.7
2018-05-03T18:43:20.184Z,17.8
2018-05-03T18:48:19.223Z,17.8
2018-05-03T18:53:19.221Z,17.4
2018-05-03T18:58:19.287Z,17.4
2018-05-03T19:03:19.253Z,17.4
2018-05-03T19:08:19.267Z,17.4
2018-05-03T19:13:19.483Z,17.3
2018-05-03T19:18:19.426Z,17.3
2018-05-03T19:23:31.750Z,17.2
2018-05-03T19:28:31.471Z,17.3
2018-05-03T19:33:31.515Z,17.2
2018-05-03T19:38:31.568Z,17.2
2018-05-03T19:43:31.660Z,17.1
2018-05-03T19:48:31.627Z,17
2018-05-03T19:53:31.615Z,16.9
2018-05-03T19:58:32.261Z,16.8
2018-05-03T20:03:31.986Z,16.9
2018-05-03T20:08:46.705Z,16.7
2018-05-03T20:13:45.964Z,16.5
2018-05-03T20:18:45.972Z,16.4
2018-05-03T20:23:45.969Z,16.5
2018-05-03T20:28:46.152Z,16.4
2018-05-03T20:33:46.092Z,16
2018-05-03T20:38:46.084Z,16
2018-05-03T20:43:46.066Z,16.1
2018-05-03T20:48:46.081Z,16.1
2018-05-03T20:53:46.088Z,16.1
2018-05-03T20:58:46.076Z,16.1
2018-05-03T21:03:46.094Z,16
2018-05-03T21:08:46.081Z,15.8
2018-05-03T21:13:46.027Z,15.8
2018-05-03T21:18:57.684Z,15.7
2018-05-03T21:23:57.587Z,15.7
2018-05-03T21:28:57.414Z,15.5
2018-05-03T21:33:57.358Z,15.5
2018-05-03T21:38:57.354Z,15.6
2018-05-03T21:43:57.631Z,15.5
2018-05-03T21:48:57.410Z,15.5
2018-05-03T21:54:01.496Z,15.3
2018-05-03T21:59:01.216Z,15.5
2018-05-03T22:04:10.374Z,15.2
2018-05-03T22:09:10.051Z,15.1
2018-05-03T22:14:10.104Z,15.3
2018-05-03T22:19:10.115Z,15.2
2018-05-03T22:24:10.106Z,15.2
2018-05-03T22:29:11.216Z,15
2018-05-03T22:34:10.860Z,15
2018-05-03T22:39:10.902Z,15.1
2018-05-03T22:44:10.916Z,14.7
2018-05-03T22:49:10.931Z,14.9
2018-05-03T22:54:10.933Z,14.9
2018-05-03T22:59:10.930Z,14.8
2018-05-03T23:04:10.933Z,14.7
2018-05-03T23:09:10.933Z,14.8
2018-05-03T23:14:22.549Z,14.9
2018-05-03T23:19:22.329Z,14.8
2018-05-03T23:24:22.194Z,14.9
2018-05-03T23:29:22.400Z,14.8
2018-05-03T23:34:22.208Z,14.7
2018-05-03T23:39:22.234Z,14.6
2018-05-03T23:44:22.207Z,14.7
2018-05-03T23:49:22.211Z,14.7
2018-05-03T23:54:22.213Z,14.6
2018-05-03T23:59:33.709Z,14.7
